createdAt,value
2018-09-22T00:00:31.825Z,57.81
2018-09-22T00:03:02.234Z,57.92
2018-09-22T00:05:33.891Z,58.03
2018-09-22T00:08:04.530Z,58.54
2018-09-22T00:10:34.922Z,58.24
2018-09-22T00:13:05.445Z,58.38
2018-09-22T00:15:36.390Z,58.78
2018-09-22T00:18:06.426Z,58.62
2018-09-22T00:20:36.444Z,57.82
2018-09-22T00:23:07.117Z,58.47
2018-09-22T00:25:38.480Z,57.55
2018-09-22T00:28:08.503Z,58.38
2018-09-22T00:30:39.515Z,58.26
2018-09-22T00:33:10.269Z,58.33
2018-09-22T00:35:40.053Z,57.94
2018-09-22T00:38:11.891Z,57.61
2018-09-22T00:40:42.341Z,57.68
2018-09-22T00:43:12.549Z,57.83
2018-09-22T00:45:42.520Z,57.62
2018-09-22T00:48:13.250Z,57.60
2018-09-22T00:50:43.752Z,58.25
2018-09-22T00:53:13.514Z,58.12
2018-09-22T00:55:43.661Z,58.58
2018-09-22T00:58:14.774Z,58.56
2018-09-22T01:00:45.042Z,58.28
2018-09-22T01:03:16.147Z,59.40
2018-09-22T01:05:46.491Z,59.13
2018-09-22T01:08:17.427Z,58.37
2018-09-22T01:10:48.635Z,59.62
2018-09-22T01:13:18.937Z,59.71
2018-09-22T01:15:49.451Z,59.54
2018-09-22T01:18:20.369Z,58.47
2018-09-22T01:20:51.155Z,59.00
2018-09-22T01:23:21.664Z,59.18
2018-09-22T01:25:52.494Z,59.33
2018-09-22T01:28:23.417Z,59.23
2018-09-22T01:30:53.827Z,59.95
2018-09-22T01:33:24.128Z,59.65
2018-09-22T01:35:56.518Z,59.56
2018-09-22T01:38:27.618Z,59.58
2018-09-22T01:40:58.019Z,58.92
2018-09-22T01:43:28.256Z,59.53
2018-09-22T01:45:59.130Z,58.89
2018-09-22T01:48:29.354Z,59.36
2018-09-22T01:51:01.764Z,59.79
2018-09-22T01:53:31.902Z,59.75
2018-09-22T01:56:02.370Z,59.81
2018-09-22T01:58:33.162Z,59.75
2018-09-22T02:01:03.518Z,59.97
2018-09-22T02:03:33.663Z,59.66
2018-09-22T02:06:03.449Z,59.13
2018-09-22T02:08:33.958Z,59.55
2018-09-22T02:11:04.297Z,59.05
2018-09-22T02:13:34.517Z,59.03
2018-09-22T02:16:05.366Z,60.29
2018-09-22T02:18:35.539Z,59.86
2018-09-22T02:21:05.660Z,60.00
2018-09-22T02:23:36.278Z,59.38
2018-09-22T02:26:06.393Z,59.90
2018-09-22T02:28:36.559Z,60.43
2018-09-22T02:31:08.420Z,60.06
2018-09-22T02:33:38.685Z,59.61
2018-09-22T02:36:08.665Z,60.03
2018-09-22T02:38:40.271Z,59.92
2018-09-22T02:41:11.068Z,59.69
2018-09-22T02:43:41.194Z,60.05
2018-09-22T02:46:11.953Z,59.91
2018-09-22T02:48:42.801Z,59.65
2018-09-22T02:51:13.688Z,60.10
2018-09-22T02:53:44.552Z,59.90
2018-09-22T02:56:14.874Z,60.04
2018-09-22T02:58:44.852Z,60.50
2018-09-22T03:01:16.191Z,60.94
2018-09-22T03:03:46.792Z,60.73
2018-09-22T03:06:16.857Z,60.79
2018-09-22T03:08:47.132Z,60.62
2018-09-22T03:11:18.670Z,60.85
2018-09-22T03:13:48.598Z,60.84
2018-09-22T03:16:20.376Z,61.50
2018-09-22T03:18:50.647Z,61.60
2018-09-22T03:21:20.562Z,61.48
2018-09-22T03:23:50.339Z,61.62
2018-09-22T03:26:21.592Z,61.41
2018-09-22T03:28:52.585Z,61.82
2018-09-22T03:31:23.003Z,61.70
2018-09-22T03:33:54.011Z,61.34
2018-09-22T03:36:25.750Z,62.23
2018-09-22T03:38:58.041Z,62.23
2018-09-22T03:41:29.335Z,62.00
2018-09-22T03:43:59.372Z,61.72
2018-09-22T03:46:29.929Z,62.06
2018-09-22T03:49:00.379Z,61.61
2018-09-22T03:51:30.995Z,62.02
2018-09-22T03:54:01.780Z,61.53
2018-09-22T03:56:32.627Z,61.17
2018-09-22T03:59:03.881Z,61.14
2018-09-22T04:01:34.069Z,61.80
2018-09-22T04:04:04.148Z,62.24
2018-09-22T04:06:34.785Z,62.38
2018-09-22T04:09:05.384Z,62.61
2018-09-22T04:11:36.681Z,62.85
2018-09-22T04:14:07.255Z,62.59
2018-09-22T04:16:37.066Z,62.41
2018-09-22T04:19:07.489Z,62.53
2018-09-22T04:21:38.359Z,62.79
2018-09-22T04:24:15.547Z,62.74
2018-09-22T04:26:46.128Z,63.25
2018-09-22T04:29:16.158Z,63.75
2018-09-22T04:31:45.983Z,64.12
2018-09-22T04:34:16.447Z,63.58
2018-09-22T04:36:47.224Z,63.83
2018-09-22T04:39:18.640Z,63.43
2018-09-22T04:41:49.332Z,63.67
2018-09-22T04:44:19.837Z,63.80
2018-09-22T04:46:50.425Z,63.99
2018-09-22T04:49:20.838Z,62.90
2018-09-22T04:51:50.831Z,63.20
2018-09-22T04:54:20.842Z,63.52
2018-09-22T04:56:51.586Z,62.78
2018-09-22T04:59:21.294Z,63.25
2018-09-22T05:01:51.201Z,62.65
2018-09-22T05:04:21.535Z,62.62
2018-09-22T05:06:51.293Z,62.28
2018-09-22T05:09:21.454Z,62.49
2018-09-22T05:11:51.943Z,61.26
2018-09-22T05:14:22.235Z,61.72
2018-09-22T05:16:52.273Z,60.98
2018-09-22T05:19:22.356Z,60.61
2018-09-22T05:21:52.119Z,61.26
2018-09-22T05:24:22.157Z,60.00
2018-09-22T05:26:53.747Z,60.03
2018-09-22T05:29:23.848Z,60.34
2018-09-22T05:31:54.619Z,60.67
2018-09-22T05:34:25.273Z,61.02
2018-09-22T05:36:56.093Z,61.14
2018-09-22T05:39:26.914Z,62.34
2018-09-22T05:41:57.682Z,62.84
2018-09-22T05:44:27.749Z,62.21
2018-09-22T05:46:58.121Z,62.87
2018-09-22T05:49:28.520Z,62.57
2018-09-22T05:51:58.740Z,63.17
2018-09-22T05:54:28.798Z,63.26
2018-09-22T05:56:59.074Z,62.52
2018-09-22T05:59:29.803Z,62.99
2018-09-22T06:01:59.732Z,63.31
2018-09-22T06:04:30.018Z,63.13
2018-09-22T06:06:59.863Z,62.40
2018-09-22T06:09:29.641Z,62.51
2018-09-22T06:12:00.169Z,62.71
2018-09-22T06:14:30.340Z,62.30
2018-09-22T06:17:03.409Z,61.55
2018-09-22T06:19:33.395Z,61.83
2018-09-22T06:22:04.418Z,61.65
2018-09-22T06:24:35.249Z,61.44
2018-09-22T06:27:07.073Z,61.04
2018-09-22T06:29:38.362Z,60.85
2018-09-22T06:32:09.901Z,60.68
2018-09-22T06:34:40.212Z,60.16
2018-09-22T06:37:11.301Z,60.42
2018-09-22T06:39:41.664Z,59.88
2018-09-22T06:42:12.899Z,60.41
2018-09-22T06:44:43.892Z,59.87
2018-09-22T06:47:14.000Z,59.23
2018-09-22T06:49:44.478Z,58.46
2018-09-22T06:52:15.817Z,58.42
2018-09-22T06:54:46.418Z,58.88
2018-09-22T06:57:17.394Z,57.15
2018-09-22T06:59:48.200Z,57.24
2018-09-22T07:02:19.213Z,56.29
2018-09-22T07:04:55.304Z,56.69
2018-09-22T07:07:26.755Z,56.35
2018-09-22T07:10:05.852Z,56.16
2018-09-22T07:12:50.453Z,55.61
2018-09-22T07:15:27.325Z,55.40
2018-09-22T07:18:04.202Z,55.34
2018-09-22T07:20:36.267Z,55.38
2018-09-22T07:23:12.149Z,55.38
2018-09-22T07:25:45.047Z,54.22
2018-09-22T07:28:16.145Z,54.67
2018-09-22T07:30:47.412Z,54.59
2018-09-22T07:33:18.092Z,54.63
2018-09-22T07:35:50.019Z,55.01
2018-09-22T07:38:22.468Z,53.95
2018-09-22T07:40:54.337Z,54.49
2018-09-22T07:43:25.601Z,54.02
2018-09-22T07:45:56.235Z,53.90
2018-09-22T07:48:26.862Z,53.51
2018-09-22T07:50:57.939Z,53.34
2018-09-22T07:53:30.184Z,52.54
2018-09-22T07:56:01.658Z,51.53
2018-09-22T07:58:32.567Z,51.89
2018-09-22T08:01:04.922Z,51.25
2018-09-22T08:03:35.899Z,51.58
2018-09-22T08:06:07.009Z,52.55
2018-09-22T08:08:38.902Z,51.72
2018-09-22T08:11:09.130Z,51.86
2018-09-22T08:13:41.744Z,51.16
2018-09-22T08:16:12.001Z,50.87
2018-09-22T08:18:42.467Z,50.30
2018-09-22T08:21:13.993Z,50.56
2018-09-22T08:23:44.104Z,50.20
2018-09-22T08:26:15.108Z,50.81
2018-09-22T08:28:46.130Z,49.62
2018-09-22T08:31:17.948Z,49.54
2018-09-22T08:33:48.073Z,49.61
2018-09-22T08:36:18.168Z,49.75
2018-09-22T08:38:48.167Z,48.70
2018-09-22T08:41:18.744Z,48.01
2018-09-22T08:43:48.841Z,47.18
2018-09-22T08:46:19.363Z,47.19
2018-09-22T08:48:51.765Z,46.98
2018-09-22T08:51:23.040Z,47.43
2018-09-22T08:53:57.168Z,46.48
2018-09-22T08:56:29.942Z,46.99
2018-09-22T08:59:01.077Z,46.82
2018-09-22T09:01:31.633Z,47.13
2018-09-22T09:04:03.874Z,46.73
2018-09-22T09:06:35.405Z,47.85
2018-09-22T09:09:11.733Z,47.34
2018-09-22T09:11:44.191Z,46.15
2018-09-22T09:14:16.256Z,47.26
2018-09-22T09:16:49.043Z,46.67
2018-09-22T09:19:19.354Z,45.89
2018-09-22T09:21:50.225Z,45.66
2018-09-22T09:24:21.816Z,45.88
2018-09-22T09:26:52.442Z,45.42
2018-09-22T09:29:23.400Z,45.20
2018-09-22T09:31:54.513Z,44.73
2018-09-22T09:34:24.737Z,45.04
2018-09-22T09:36:55.363Z,45.27
2018-09-22T09:39:25.844Z,44.51
2018-09-22T09:41:56.089Z,45.29
2018-09-22T09:44:26.843Z,45.37
2018-09-22T09:46:59.175Z,44.26
2018-09-22T09:49:31.184Z,44.49
2018-09-22T09:52:06.588Z,43.95
2018-09-22T09:54:39.311Z,43.30
2018-09-22T09:57:11.781Z,43.37
2018-09-22T09:59:48.103Z,43.73
2018-09-22T10:02:21.613Z,43.50
2018-09-22T10:04:57.000Z,43.15
2018-09-22T10:07:31.553Z,43.00
2018-09-22T10:10:04.603Z,43.66
2018-09-22T10:12:41.868Z,43.29
2018-09-22T10:15:17.053Z,42.62
2018-09-22T10:17:49.049Z,42.67
2018-09-22T10:20:20.261Z,42.92
2018-09-22T11:05:14.309Z,37.76
2018-09-22T11:07:44.962Z,37.88
2018-09-22T11:10:17.108Z,38.33
2018-09-22T11:12:49.015Z,39.08
2018-09-22T11:15:20.030Z,39.28
2018-09-22T11:17:54.144Z,38.44
2018-09-22T11:20:26.701Z,38.78
2018-09-22T11:23:01.385Z,38.61
2018-09-22T11:25:31.825Z,37.49
2018-09-22T11:28:04.375Z,37.31
2018-09-22T11:30:36.081Z,37.37
2018-09-22T11:33:08.638Z,36.92
2018-09-22T11:35:39.537Z,35.89
2018-09-22T11:38:13.005Z,36.88
2018-09-22T11:40:43.702Z,36.50
2018-09-22T11:43:14.954Z,36.08
2018-09-22T11:45:45.601Z,35.95
2018-09-22T11:48:17.856Z,36.29
2018-09-22T11:50:48.299Z,36.39
2018-09-22T11:53:18.784Z,36.72
2018-09-22T11:55:51.005Z,36.71
2018-09-22T11:58:23.205Z,36.39
2018-09-22T12:00:58.636Z,36.33
2018-09-22T12:03:29.776Z,36.16
2018-09-22T12:06:00.339Z,36.25
2018-09-22T12:08:34.316Z,37.08
2018-09-22T12:11:06.091Z,36.30
2018-09-22T12:13:36.082Z,36.45
2018-09-22T12:16:06.889Z,36.66
2018-09-22T12:18:37.330Z,36.31
2018-09-22T12:21:08.760Z,35.75
2018-09-22T12:23:39.418Z,36.34
2018-09-22T12:26:09.410Z,34.91
2018-09-22T12:28:39.534Z,34.16
2018-09-22T12:31:09.722Z,34.25
2018-09-22T12:33:40.078Z,34.92
2018-09-22T12:36:11.004Z,35.12
2018-09-22T12:38:41.554Z,35.84
2018-09-22T12:41:11.883Z,36.09
2018-09-22T12:43:42.316Z,35.45
2018-09-22T12:46:14.207Z,34.99
2018-09-22T12:48:45.533Z,34.90
2018-09-22T12:51:15.916Z,34.63
2018-09-22T12:53:46.173Z,34.51
2018-09-22T12:56:16.781Z,33.92
2018-09-22T12:58:47.036Z,32.99
2018-09-22T13:01:19.042Z,33.60
2018-09-22T13:03:49.340Z,33.81
2018-09-22T13:06:20.357Z,33.88
2018-09-22T13:08:50.801Z,33.50
2018-09-22T13:11:21.877Z,34.53
2018-09-22T13:13:52.223Z,34.24
2018-09-22T13:16:22.207Z,34.17
2018-09-22T13:18:54.664Z,35.30
2018-09-22T13:21:26.959Z,34.96
2018-09-22T13:23:58.018Z,34.45
2018-09-22T13:26:27.941Z,34.36
2018-09-22T13:28:58.057Z,33.72
2018-09-22T13:31:28.909Z,34.37
2018-09-22T13:34:01.884Z,34.69
2018-09-22T13:36:35.168Z,34.05
2018-09-22T13:39:07.210Z,33.55
2018-09-22T13:41:39.193Z,34.04
2018-09-22T13:44:09.921Z,34.68
2018-09-22T13:46:41.266Z,33.81
2018-09-22T13:49:12.453Z,33.81
2018-09-22T13:51:43.598Z,34.07
2018-09-22T13:54:13.709Z,33.46
2018-09-22T13:56:43.645Z,33.73
2018-09-22T13:59:17.662Z,34.49
2018-09-22T14:01:53.379Z,34.44
2018-09-22T14:04:25.097Z,35.11
2018-09-22T14:09:01.583Z,34.54
2018-09-22T14:11:31.942Z,35.14
2018-09-22T14:14:03.543Z,34.26
2018-09-22T14:16:34.118Z,34.74
2018-09-22T14:19:04.736Z,35.95
2018-09-22T14:21:34.714Z,34.89
2018-09-22T14:24:05.175Z,35.32
2018-09-22T14:26:37.028Z,36.27
2018-09-22T14:29:07.556Z,36.58
2018-09-22T14:31:38.128Z,37.50
2018-09-22T14:34:08.462Z,36.29
2018-09-22T14:36:40.738Z,37.56
2018-09-22T14:39:10.978Z,36.99
2018-09-22T14:41:40.966Z,37.64
2018-09-22T14:44:12.100Z,37.24
2018-09-22T14:46:42.355Z,37.09
2018-09-22T14:49:12.491Z,37.23
2018-09-22T14:51:42.869Z,37.14
2018-09-22T14:54:13.243Z,37.22
2018-09-22T14:56:43.536Z,36.99
2018-09-22T14:59:17.401Z,36.81
2018-09-22T15:01:49.481Z,37.36
2018-09-22T15:04:22.263Z,37.06
2018-09-22T15:06:55.090Z,36.43
2018-09-22T15:09:27.920Z,36.39
2018-09-22T15:11:58.871Z,36.91
2018-09-22T15:14:30.010Z,37.62
2018-09-22T15:17:01.442Z,38.49
2018-09-22T15:19:35.133Z,38.35
2018-09-22T15:22:05.779Z,38.50
2018-09-22T15:24:35.857Z,38.65
2018-09-22T15:27:05.902Z,38.94
2018-09-22T15:29:37.210Z,39.88
2018-09-22T15:32:07.682Z,39.75
2018-09-22T15:34:37.870Z,40.04
2018-09-22T15:37:08.339Z,40.18
2018-09-22T15:39:39.276Z,39.92
2018-09-22T15:42:09.684Z,40.85
2018-09-22T15:44:40.829Z,40.33
2018-09-22T15:47:11.914Z,41.29
2018-09-22T15:49:41.950Z,41.52
2018-09-22T15:52:18.359Z,41.78
2018-09-22T15:54:48.480Z,41.88
2018-09-22T15:57:18.880Z,41.39
2018-09-22T15:59:53.000Z,41.25
2018-09-22T16:02:24.164Z,41.37
2018-09-22T16:04:55.306Z,42.66
2018-09-22T16:07:25.752Z,42.48
2018-09-22T16:09:56.705Z,42.68
2018-09-22T16:12:27.068Z,43.35
2018-09-22T16:14:57.867Z,43.72
2018-09-22T16:17:28.433Z,44.65
2018-09-22T16:19:59.342Z,45.30
2018-09-22T16:22:30.301Z,45.71
2018-09-22T16:25:03.053Z,46.02
2018-09-22T16:27:33.381Z,45.03
2018-09-22T16:30:03.722Z,44.40
2018-09-22T16:32:34.436Z,45.45
2018-09-22T16:35:08.266Z,44.81
2018-09-22T16:37:38.160Z,45.58
2018-09-22T16:40:08.735Z,45.42
2018-09-22T16:42:38.858Z,45.11
2018-09-22T16:45:10.199Z,45.37
2018-09-22T16:47:42.986Z,46.64
2018-09-22T16:50:14.563Z,46.33
2018-09-22T16:52:45.179Z,47.32
2018-09-22T16:55:19.528Z,46.85
2018-09-22T16:57:52.562Z,46.97
2018-09-22T17:00:23.348Z,47.42
2018-09-22T17:02:54.150Z,47.37
2018-09-22T17:05:25.446Z,47.03
2018-09-22T17:07:56.504Z,47.77
2018-09-22T17:10:27.043Z,47.28
2018-09-22T17:12:58.872Z,47.14
2018-09-22T17:15:30.100Z,47.48
2018-09-22T17:18:10.659Z,47.36
2018-09-22T17:20:44.123Z,47.04
2018-09-22T17:23:14.801Z,47.10
2018-09-22T17:25:46.064Z,47.54
2018-09-22T17:28:18.979Z,48.08
2018-09-22T17:30:49.982Z,46.94
2018-09-22T17:33:21.404Z,47.66
2018-09-22T17:35:52.700Z,47.66
2018-09-22T17:38:23.552Z,47.61
2018-09-22T17:40:53.963Z,47.58
2018-09-22T17:43:25.725Z,48.20
2018-09-22T17:45:57.295Z,48.58
2018-09-22T17:48:28.850Z,48.74
2018-09-22T17:50:59.019Z,48.42
2018-09-22T17:53:29.444Z,48.63
2018-09-22T17:56:01.422Z,49.51
2018-09-22T17:58:32.001Z,49.39
2018-09-22T18:01:03.373Z,51.33
2018-09-22T18:03:35.162Z,51.68
2018-09-22T18:06:07.580Z,54.12
2018-09-22T18:08:38.449Z,54.39
2018-09-22T18:11:08.926Z,54.18
2018-09-22T18:13:40.051Z,55.59
2018-09-22T18:16:12.184Z,56.59
2018-09-22T18:18:42.967Z,59.86
2018-09-22T18:21:13.469Z,62.03
2018-09-22T18:23:45.888Z,63.44
2018-09-22T18:26:18.377Z,65.04
2018-09-22T18:28:51.984Z,66.24
2018-09-22T18:31:23.128Z,67.63
2018-09-22T18:33:56.329Z,68.94
2018-09-22T18:36:30.417Z,69.76
2018-09-22T18:39:05.986Z,69.18
2018-09-22T18:41:40.410Z,69.79
2018-09-22T18:44:13.807Z,70.24
2018-09-22T18:46:46.869Z,70.27
2018-09-22T18:49:18.177Z,70.17
2018-09-22T18:51:51.056Z,69.51
2018-09-22T18:54:24.366Z,69.37
2018-09-22T18:56:58.976Z,69.16
2018-09-22T18:59:41.655Z,70.54
2018-09-22T19:02:13.839Z,70.35
2018-09-22T19:04:51.549Z,70.65
2018-09-22T19:07:22.048Z,69.98
2018-09-22T19:09:53.971Z,69.71
2018-09-22T19:12:24.899Z,70.22
2018-09-22T19:15:09.323Z,70.64
2018-09-22T19:17:46.877Z,70.90
2018-09-22T19:20:21.201Z,71.25
2018-09-22T19:22:53.828Z,70.49
2018-09-22T19:25:26.809Z,70.21
2018-09-22T19:28:03.861Z,69.81
2018-09-22T19:30:38.078Z,69.72
2018-09-22T19:33:17.142Z,69.82
2018-09-22T19:35:52.601Z,68.93
2018-09-22T19:38:26.905Z,68.13
2018-09-22T19:41:08.352Z,68.33
2018-09-22T19:43:45.256Z,67.47
2018-09-22T19:46:20.806Z,67.83
2018-09-22T19:50:59.207Z,66.97
2018-09-22T19:53:30.136Z,66.52
2018-09-22T19:56:03.403Z,66.64
2018-09-22T19:58:33.805Z,67.16
2018-09-22T20:01:05.586Z,66.89
2018-09-22T20:03:35.946Z,67.71
2018-09-22T20:06:07.113Z,68.84
2018-09-22T20:08:38.617Z,67.67
2018-09-22T20:11:09.254Z,68.30
2018-09-22T20:13:41.315Z,68.69
2018-09-22T20:16:11.871Z,69.22
2018-09-22T20:18:42.301Z,69.08
2018-09-22T20:21:16.951Z,69.05
2018-09-22T20:23:47.511Z,69.23
2018-09-22T20:26:17.699Z,70.01
2018-09-22T20:28:49.642Z,69.89
2018-09-22T20:31:22.326Z,70.23
2018-09-22T20:33:54.588Z,69.84
2018-09-22T20:36:25.719Z,70.37
2018-09-22T20:38:57.749Z,70.59
2018-09-22T20:41:31.614Z,70.92
2018-09-22T20:44:02.935Z,70.82
2018-09-22T20:46:35.241Z,71.66
2018-09-22T20:49:07.510Z,71.15
2018-09-22T20:51:39.310Z,70.17
2018-09-22T20:54:11.284Z,71.34
2018-09-22T20:56:41.559Z,70.56
2018-09-22T20:59:12.385Z,71.29
2018-09-22T21:01:43.505Z,71.81
2018-09-22T21:04:13.551Z,71.50
2018-09-22T21:06:43.557Z,71.22
2018-09-22T21:09:15.226Z,70.83
2018-09-22T21:11:45.189Z,71.07
2018-09-22T21:14:15.612Z,71.55
2018-09-22T21:16:46.367Z,70.92
2018-09-22T21:19:17.523Z,70.42
2018-09-22T21:21:47.950Z,71.47
2018-09-22T21:24:18.372Z,71.04
2018-09-22T21:26:48.508Z,70.83
2018-09-22T21:29:18.481Z,70.69
2018-09-22T21:31:49.306Z,70.06
2018-09-22T21:34:20.733Z,70.18
2018-09-22T21:36:50.574Z,70.16
2018-09-22T21:39:20.939Z,70.62
2018-09-22T21:41:50.949Z,70.13
2018-09-22T21:44:22.114Z,71.42
2018-09-22T21:46:52.428Z,71.31
2018-09-22T21:49:23.265Z,71.59
2018-09-22T21:51:53.410Z,71.33
2018-09-22T21:54:23.796Z,70.97
2018-09-22T21:56:53.693Z,70.64
2018-09-22T21:59:23.506Z,71.31
2018-09-22T22:01:54.273Z,70.56
2018-09-22T22:04:24.718Z,71.60
2018-09-22T22:06:55.828Z,71.44
2018-09-22T22:09:26.186Z,71.99
2018-09-22T22:11:56.471Z,72.20
2018-09-22T22:14:26.828Z,72.48
2018-09-22T22:16:57.470Z,71.98
2018-09-22T22:19:27.369Z,72.65
2018-09-22T22:21:57.544Z,71.99
2018-09-22T22:24:27.642Z,72.77
2018-09-22T22:26:58.140Z,73.20
2018-09-22T22:29:29.111Z,72.16
2018-09-22T22:31:59.568Z,72.17
2018-09-22T22:34:29.961Z,71.92
2018-09-22T22:36:59.973Z,71.75
2018-09-22T22:39:30.211Z,71.41
2018-09-22T22:42:00.259Z,70.97
2018-09-22T22:44:30.260Z,70.37
2018-09-22T22:47:00.412Z,70.75
2018-09-22T22:49:32.133Z,70.64
2018-09-22T22:52:03.531Z,71.65
2018-09-22T22:54:33.760Z,71.31
2018-09-22T22:57:03.657Z,71.20
2018-09-22T22:59:44.684Z,71.12
2018-09-22T23:02:14.756Z,70.53
2018-09-22T23:04:45.603Z,70.34
2018-09-22T23:07:15.985Z,70.13
2018-09-22T23:09:45.878Z,70.08
2018-09-22T23:12:16.403Z,70.11
2018-09-22T23:14:49.134Z,70.05
2018-09-22T23:17:19.272Z,69.13
2018-09-22T23:19:50.413Z,69.38
2018-09-22T23:22:20.701Z,68.63
2018-09-22T23:24:50.588Z,68.51
2018-09-22T23:27:21.547Z,68.88
2018-09-22T23:29:51.566Z,68.61
2018-09-22T23:32:22.117Z,68.75
2018-09-22T23:34:53.355Z,69.17
2018-09-22T23:37:26.402Z,68.83
2018-09-22T23:39:56.300Z,68.37
2018-09-22T23:42:27.114Z,68.29
2018-09-22T23:44:58.381Z,68.43
2018-09-22T23:47:29.666Z,68.09
2018-09-22T23:49:59.954Z,68.43
2018-09-22T23:52:30.088Z,68.70
2018-09-22T23:55:00.923Z,68.63
2018-09-22T23:57:31.812Z,67.94
